sensor_id;sensor_type;location;lat;lon;timestamp;P1;durP1;ratioP1;P2;durP2;ratioP2
64894;SDS011;51588;53.702;10.208;2023-05-29T00:01:25;6.17;;;2.30;;
64894;SDS011;51588;53.702;10.208;2023-05-29T00:03:51;3.30;;;2.30;;
64894;SDS011;51588;53.702;10.208;2023-05-29T00:06:18;4.10;;;2.50;;
64894;SDS011;51588;53.702;10.208;2023-05-29T00:08:45;5.57;;;2.40;;
64894;SDS011;51588;53.702;10.208;2023-05-29T00:11:13;3.20;;;2.43;;
64894;SDS011;51588;53.702;10.208;2023-05-29T00:13:39;3.73;;;2.03;;
64894;SDS011;51588;53.702;10.208;2023-05-29T00:16:07;3.57;;;2.43;;
64894;SDS011;51588;53.702;10.208;2023-05-29T00:18:34;3.33;;;2.03;;
64894;SDS011;51588;53.702;10.208;2023-05-29T00:21:01;3.80;;;2.63;;
64894;SDS011;51588;53.702;10.208;2023-05-29T00:23:28;4.57;;;2.67;;
64894;SDS011;51588;53.702;10.208;2023-05-29T00:25:54;3.30;;;2.30;;
64894;SDS011;51588;53.702;10.208;2023-05-29T00:28:20;2.80;;;1.83;;
64894;SDS011;51588;53.702;10.208;2023-05-29T00:30:47;3.37;;;2.07;;
64894;SDS011;51588;53.702;10.208;2023-05-29T00:33:15;3.50;;;1.90;;
64894;SDS011;51588;53.702;10.208;2023-05-29T00:35:42;3.77;;;2.27;;
64894;SDS011;51588;53.702;10.208;2023-05-29T00:38:09;3.57;;;2.20;;
64894;SDS011;51588;53.702;10.208;2023-05-29T00:40:35;5.57;;;2.10;;
64894;SDS011;51588;53.702;10.208;2023-05-29T00:43:02;3.80;;;2.20;;
64894;SDS011;51588;53.702;10.208;2023-05-29T00:45:28;4.23;;;1.90;;
64894;SDS011;51588;53.702;10.208;2023-05-29T00:47:55;5.40;;;2.50;;
64894;SDS011;51588;53.702;10.208;2023-05-29T00:50:23;4.03;;;2.40;;
64894;SDS011;51588;53.702;10.208;2023-05-29T00:52:50;4.47;;;2.40;;
64894;SDS011;51588;53.702;10.208;2023-05-29T00:55:16;3.60;;;2.10;;
64894;SDS011;51588;53.702;10.208;2023-05-29T00:57:43;5.30;;;2.37;;
64894;SDS011;51588;53.702;10.208;2023-05-29T01:00:11;2.87;;;2.00;;
64894;SDS011;51588;53.702;10.208;2023-05-29T01:02:39;4.97;;;2.20;;
64894;SDS011;51588;53.702;10.208;2023-05-29T01:05:06;2.87;;;2.10;;
64894;SDS011;51588;53.702;10.208;2023-05-29T01:07:36;3.47;;;1.90;;
64894;SDS011;51588;53.702;10.208;2023-05-29T01:10:02;3.40;;;2.20;;
64894;SDS011;51588;53.702;10.208;2023-05-29T01:12:32;3.97;;;2.20;;
64894;SDS011;51588;53.702;10.208;2023-05-29T01:15:03;3.17;;;2.00;;
64894;SDS011;51588;53.702;10.208;2023-05-29T01:17:32;4.70;;;2.13;;
64894;SDS011;51588;53.702;10.208;2023-05-29T01:20:08;2.50;;;1.77;;
64894;SDS011;51588;53.702;10.208;2023-05-29T01:22:51;4.80;;;2.37;;
64894;SDS011;51588;53.702;10.208;2023-05-29T01:25:22;3.00;;;2.30;;
64894;SDS011;51588;53.702;10.208;2023-05-29T01:27:51;4.50;;;2.03;;
64894;SDS011;51588;53.702;10.208;2023-05-29T01:30:18;3.90;;;2.00;;
64894;SDS011;51588;53.702;10.208;2023-05-29T01:32:46;3.53;;;2.10;;
64894;SDS011;51588;53.702;10.208;2023-05-29T01:35:13;4.40;;;2.30;;
64894;SDS011;51588;53.702;10.208;2023-05-29T01:37:39;4.90;;;2.77;;
64894;SDS011;51588;53.702;10.208;2023-05-29T01:40:06;3.30;;;2.10;;
64894;SDS011;51588;53.702;10.208;2023-05-29T01:42:33;2.87;;;2.00;;
64894;SDS011;51588;53.702;10.208;2023-05-29T01:45:01;5.37;;;2.20;;
64894;SDS011;51588;53.702;10.208;2023-05-29T01:47:28;3.33;;;2.00;;
64894;SDS011;51588;53.702;10.208;2023-05-29T01:49:55;3.73;;;2.10;;
64894;SDS011;51588;53.702;10.208;2023-05-29T01:52:22;4.87;;;2.40;;
64894;SDS011;51588;53.702;10.208;2023-05-29T01:54:48;4.10;;;2.00;;
64894;SDS011;51588;53.702;10.208;2023-05-29T01:57:15;3.10;;;1.90;;
64894;SDS011;51588;53.702;10.208;2023-05-29T01:59:41;4.10;;;2.00;;
64894;SDS011;51588;53.702;10.208;2023-05-29T02:02:09;3.37;;;2.10;;
64894;SDS011;51588;53.702;10.208;2023-05-29T02:04:36;4.63;;;2.00;;
64894;SDS011;51588;53.702;10.208;2023-05-29T02:07:03;3.77;;;1.93;;
64894;SDS011;51588;53.702;10.208;2023-05-29T02:09:30;4.63;;;2.27;;
64894;SDS011;51588;53.702;10.208;2023-05-29T02:11:56;3.77;;;1.90;;
64894;SDS011;51588;53.702;10.208;2023-05-29T02:14:23;2.47;;;1.80;;
64894;SDS011;51588;53.702;10.208;2023-05-29T02:16:49;2.93;;;1.87;;
64894;SDS011;51588;53.702;10.208;2023-05-29T02:19:18;4.13;;;1.87;;
64894;SDS011;51588;53.702;10.208;2023-05-29T02:21:44;3.43;;;2.13;;
64894;SDS011;51588;53.702;10.208;2023-05-29T02:24:10;4.70;;;1.80;;
64894;SDS011;51588;53.702;10.208;2023-05-29T02:26:37;3.87;;;2.10;;
64894;SDS011;51588;53.702;10.208;2023-05-29T02:29:03;4.40;;;2.07;;
64894;SDS011;51588;53.702;10.208;2023-05-29T02:31:31;3.43;;;2.00;;
64894;SDS011;51588;53.702;10.208;2023-05-29T02:33:58;4.13;;;1.90;;
64894;SDS011;51588;53.702;10.208;2023-05-29T02:36:25;4.67;;;2.20;;
64894;SDS011;51588;53.702;10.208;2023-05-29T02:38:53;2.23;;;1.60;;
64894;SDS011;51588;53.702;10.208;2023-05-29T02:41:19;3.10;;;1.87;;
64894;SDS011;51588;53.702;10.208;2023-05-29T02:43:46;3.70;;;1.90;;
64894;SDS011;51588;53.702;10.208;2023-05-29T02:46:12;4.13;;;2.27;;
64894;SDS011;51588;53.702;10.208;2023-05-29T02:48:38;3.50;;;1.93;;
64894;SDS011;51588;53.702;10.208;2023-05-29T02:51:05;4.67;;;2.00;;
64894;SDS011;51588;53.702;10.208;2023-05-29T02:53:32;3.57;;;1.90;;
64894;SDS011;51588;53.702;10.208;2023-05-29T02:55:59;3.60;;;1.77;;
64894;SDS011;51588;53.702;10.208;2023-05-29T02:58:25;3.07;;;2.20;;
64894;SDS011;51588;53.702;10.208;2023-05-29T03:00:52;5.90;;;2.00;;
64894;SDS011;51588;53.702;10.208;2023-05-29T03:03:18;3.70;;;2.00;;
64894;SDS011;51588;53.702;10.208;2023-05-29T03:05:45;3.20;;;1.90;;
64894;SDS011;51588;53.702;10.208;2023-05-29T03:08:11;5.27;;;1.90;;
64894;SDS011;51588;53.702;10.208;2023-05-29T03:10:40;6.13;;;2.20;;
64894;SDS011;51588;53.702;10.208;2023-05-29T03:13:06;6.47;;;1.90;;
64894;SDS011;51588;53.702;10.208;2023-05-29T03:15:33;4.20;;;2.10;;
64894;SDS011;51588;53.702;10.208;2023-05-29T03:17:59;5.33;;;1.97;;
64894;SDS011;51588;53.702;10.208;2023-05-29T03:20:25;4.53;;;2.20;;
64894;SDS011;51588;53.702;10.208;2023-05-29T03:22:54;4.63;;;1.90;;
64894;SDS011;51588;53.702;10.208;2023-05-29T03:25:20;3.07;;;1.80;;
64894;SDS011;51588;53.702;10.208;2023-05-29T03:27:48;6.47;;;2.37;;
64894;SDS011;51588;53.702;10.208;2023-05-29T03:30:15;5.00;;;2.33;;
64894;SDS011;51588;53.702;10.208;2023-05-29T03:32:42;3.43;;;1.77;;
64894;SDS011;51588;53.702;10.208;2023-05-29T03:35:08;4.73;;;2.17;;
64894;SDS011;51588;53.702;10.208;2023-05-29T03:37:34;2.27;;;1.63;;
64894;SDS011;51588;53.702;10.208;2023-05-29T03:40:01;2.20;;;1.60;;
64894;SDS011;51588;53.702;10.208;2023-05-29T03:42:28;4.37;;;1.80;;
64894;SDS011;51588;53.702;10.208;2023-05-29T03:44:57;3.37;;;1.83;;
64894;SDS011;51588;53.702;10.208;2023-05-29T03:47:24;4.30;;;1.97;;
64894;SDS011;51588;53.702;10.208;2023-05-29T03:49:50;4.50;;;2.10;;
64894;SDS011;51588;53.702;10.208;2023-05-29T03:52:16;4.73;;;2.13;;
64894;SDS011;51588;53.702;10.208;2023-05-29T03:54:43;3.33;;;1.80;;
64894;SDS011;51588;53.702;10.208;2023-05-29T03:57:10;4.37;;;2.17;;
64894;SDS011;51588;53.702;10.208;2023-05-29T03:59:36;3.63;;;1.80;;
64894;SDS011;51588;53.702;10.208;2023-05-29T04:02:04;3.33;;;1.90;;
64894;SDS011;51588;53.702;10.208;2023-05-29T04:04:31;3.47;;;1.90;;
64894;SDS011;51588;53.702;10.208;2023-05-29T04:06:58;4.60;;;2.07;;
64894;SDS011;51588;53.702;10.208;2023-05-29T04:09:24;3.70;;;1.90;;
64894;SDS011;51588;53.702;10.208;2023-05-29T04:11:50;4.33;;;2.07;;
64894;SDS011;51588;53.702;10.208;2023-05-29T04:14:19;5.13;;;2.00;;
64894;SDS011;51588;53.702;10.208;2023-05-29T04:16:46;3.77;;;1.93;;
64894;SDS011;51588;53.702;10.208;2023-05-29T04:19:14;4.37;;;1.87;;
64894;SDS011;51588;53.702;10.208;2023-05-29T04:21:40;4.03;;;2.07;;
64894;SDS011;51588;53.702;10.208;2023-05-29T04:24:07;5.70;;;2.43;;
64894;SDS011;51588;53.702;10.208;2023-05-29T04:29:09;5.07;;;2.30;;
64894;SDS011;51588;53.702;10.208;2023-05-29T04:31:37;4.67;;;1.90;;
64894;SDS011;51588;53.702;10.208;2023-05-29T04:34:04;4.63;;;2.53;;
64894;SDS011;51588;53.702;10.208;2023-05-29T04:36:32;4.90;;;1.90;;
64894;SDS011;51588;53.702;10.208;2023-05-29T04:38:58;3.47;;;1.97;;
64894;SDS011;51588;53.702;10.208;2023-05-29T04:41:25;4.73;;;2.00;;
64894;SDS011;51588;53.702;10.208;2023-05-29T04:43:54;3.60;;;1.80;;
64894;SDS011;51588;53.702;10.208;2023-05-29T04:46:21;4.57;;;2.00;;
64894;SDS011;51588;53.702;10.208;2023-05-29T04:48:49;2.93;;;1.80;;
64894;SDS011;51588;53.702;10.208;2023-05-29T04:51:18;3.60;;;1.70;;
64894;SDS011;51588;53.702;10.208;2023-05-29T04:53:46;4.10;;;2.10;;
64894;SDS011;51588;53.702;10.208;2023-05-29T04:56:12;5.20;;;2.23;;
64894;SDS011;51588;53.702;10.208;2023-05-29T04:58:39;2.70;;;1.80;;
64894;SDS011;51588;53.702;10.208;2023-05-29T05:01:06;3.07;;;2.17;;
64894;SDS011;51588;53.702;10.208;2023-05-29T05:03:33;4.00;;;1.93;;
64894;SDS011;51588;53.702;10.208;2023-05-29T05:05:59;3.40;;;2.00;;
64894;SDS011;51588;53.702;10.208;2023-05-29T05:08:27;3.83;;;2.07;;
64894;SDS011;51588;53.702;10.208;2023-05-29T05:10:55;3.40;;;1.87;;
64894;SDS011;51588;53.702;10.208;2023-05-29T05:13:21;4.50;;;2.30;;
64894;SDS011;51588;53.702;10.208;2023-05-29T05:15:48;3.57;;;1.90;;
64894;SDS011;51588;53.702;10.208;2023-05-29T05:18:14;3.53;;;1.90;;
64894;SDS011;51588;53.702;10.208;2023-05-29T05:20:40;4.00;;;1.97;;
64894;SDS011;51588;53.702;10.208;2023-05-29T05:23:07;5.60;;;2.20;;
64894;SDS011;51588;53.702;10.208;2023-05-29T05:25:33;3.43;;;2.20;;
64894;SDS011;51588;53.702;10.208;2023-05-29T05:28:01;3.73;;;1.90;;
64894;SDS011;51588;53.702;10.208;2023-05-29T05:30:28;2.70;;;1.60;;
64894;SDS011;51588;53.702;10.208;2023-05-29T05:32:55;3.10;;;1.93;;
64894;SDS011;51588;53.702;10.208;2023-05-29T05:35:21;3.43;;;1.77;;
64894;SDS011;51588;53.702;10.208;2023-05-29T05:37:48;3.20;;;1.57;;
64894;SDS011;51588;53.702;10.208;2023-05-29T05:40:14;5.23;;;2.10;;
64894;SDS011;51588;53.702;10.208;2023-05-29T05:42:41;2.97;;;1.73;;
64894;SDS011;51588;53.702;10.208;2023-05-29T05:45:09;3.30;;;2.00;;
64894;SDS011;51588;53.702;10.208;2023-05-29T05:47:36;3.30;;;1.83;;
64894;SDS011;51588;53.702;10.208;2023-05-29T05:50:02;2.90;;;1.80;;
64894;SDS011;51588;53.702;10.208;2023-05-29T05:52:28;5.50;;;1.77;;
64894;SDS011;51588;53.702;10.208;2023-05-29T05:54:57;4.53;;;2.10;;
64894;SDS011;51588;53.702;10.208;2023-05-29T05:57:24;5.07;;;2.20;;
64894;SDS011;51588;53.702;10.208;2023-05-29T05:59:50;3.70;;;1.93;;
64894;SDS011;51588;53.702;10.208;2023-05-29T06:02:18;4.47;;;2.13;;
64894;SDS011;51588;53.702;10.208;2023-05-29T06:04:44;3.90;;;1.90;;
64894;SDS011;51588;53.702;10.208;2023-05-29T06:07:11;4.80;;;2.07;;
64894;SDS011;51588;53.702;10.208;2023-05-29T06:09:37;3.50;;;1.90;;
64894;SDS011;51588;53.702;10.208;2023-05-29T06:12:04;4.30;;;1.90;;
64894;SDS011;51588;53.702;10.208;2023-05-29T06:14:32;3.33;;;2.10;;
64894;SDS011;51588;53.702;10.208;2023-05-29T06:16:59;4.23;;;1.87;;
64894;SDS011;51588;53.702;10.208;2023-05-29T06:19:27;3.40;;;2.00;;
64894;SDS011;51588;53.702;10.208;2023-05-29T06:21:53;4.77;;;1.97;;
64894;SDS011;51588;53.702;10.208;2023-05-29T06:24:20;4.10;;;2.00;;
64894;SDS011;51588;53.702;10.208;2023-05-29T06:26:46;3.53;;;1.73;;
64894;SDS011;51588;53.702;10.208;2023-05-29T06:29:12;4.70;;;2.30;;
64894;SDS011;51588;53.702;10.208;2023-05-29T06:31:40;2.40;;;1.70;;
64894;SDS011;51588;53.702;10.208;2023-05-29T06:34:06;3.30;;;1.97;;
64894;SDS011;51588;53.702;10.208;2023-05-29T06:36:34;4.40;;;1.90;;
64894;SDS011;51588;53.702;10.208;2023-05-29T06:39:00;5.73;;;2.07;;
64894;SDS011;51588;53.702;10.208;2023-05-29T06:41:27;6.37;;;1.93;;
64894;SDS011;51588;53.702;10.208;2023-05-29T06:43:53;3.80;;;2.10;;
64894;SDS011;51588;53.702;10.208;2023-05-29T06:46:20;4.77;;;2.13;;
64894;SDS011;51588;53.702;10.208;2023-05-29T06:48:46;3.67;;;1.90;;
64894;SDS011;51588;53.702;10.208;2023-05-29T06:51:12;4.17;;;1.87;;
64894;SDS011;51588;53.702;10.208;2023-05-29T06:53:40;4.50;;;2.23;;
64894;SDS011;51588;53.702;10.208;2023-05-29T06:56:07;4.50;;;1.90;;
64894;SDS011;51588;53.702;10.208;2023-05-29T06:58:33;5.40;;;2.10;;
64894;SDS011;51588;53.702;10.208;2023-05-29T07:01:00;4.70;;;2.20;;
64894;SDS011;51588;53.702;10.208;2023-05-29T07:03:27;4.83;;;2.10;;
64894;SDS011;51588;53.702;10.208;2023-05-29T07:05:54;3.97;;;1.90;;
64894;SDS011;51588;53.702;10.208;2023-05-29T07:08:20;3.23;;;1.83;;
64894;SDS011;51588;53.702;10.208;2023-05-29T07:10:48;5.50;;;2.43;;
64894;SDS011;51588;53.702;10.208;2023-05-29T07:13:15;4.80;;;2.07;;
64894;SDS011;51588;53.702;10.208;2023-05-29T07:15:41;4.13;;;1.97;;
64894;SDS011;51588;53.702;10.208;2023-05-29T07:18:08;7.43;;;2.13;;
64894;SDS011;51588;53.702;10.208;2023-05-29T07:20:35;6.37;;;2.23;;
64894;SDS011;51588;53.702;10.208;2023-05-29T07:23:01;6.83;;;2.20;;
64894;SDS011;51588;53.702;10.208;2023-05-29T07:25:28;6.10;;;2.30;;
64894;SDS011;51588;53.702;10.208;2023-05-29T07:27:56;6.37;;;2.60;;
64894;SDS011;51588;53.702;10.208;2023-05-29T07:30:22;21.27;;;5.10;;
64894;SDS011;51588;53.702;10.208;2023-05-29T07:32:49;17.33;;;5.20;;
64894;SDS011;51588;53.702;10.208;2023-05-29T07:35:15;15.07;;;5.20;;
64894;SDS011;51588;53.702;10.208;2023-05-29T07:37:42;10.13;;;3.83;;
64894;SDS011;51588;53.702;10.208;2023-05-29T07:40:08;13.40;;;4.30;;
64894;SDS011;51588;53.702;10.208;2023-05-29T07:42:35;13.27;;;4.17;;
64894;SDS011;51588;53.702;10.208;2023-05-29T07:45:03;14.43;;;4.50;;
64894;SDS011;51588;53.702;10.208;2023-05-29T07:47:30;12.77;;;4.03;;
64894;SDS011;51588;53.702;10.208;2023-05-29T07:49:56;17.10;;;4.87;;
64894;SDS011;51588;53.702;10.208;2023-05-29T07:52:22;16.93;;;4.20;;
64894;SDS011;51588;53.702;10.208;2023-05-29T07:54:49;15.40;;;4.20;;
64894;SDS011;51588;53.702;10.208;2023-05-29T07:57:15;14.80;;;4.43;;
64894;SDS011;51588;53.702;10.208;2023-05-29T07:59:42;29.43;;;3.97;;
64894;SDS011;51588;53.702;10.208;2023-05-29T08:02:10;14.30;;;4.30;;
64894;SDS011;51588;53.702;10.208;2023-05-29T08:04:36;19.53;;;3.60;;
64894;SDS011;51588;53.702;10.208;2023-05-29T08:07:03;15.07;;;4.57;;
64894;SDS011;51588;53.702;10.208;2023-05-29T08:09:29;13.77;;;3.77;;
64894;SDS011;51588;53.702;10.208;2023-05-29T08:11:56;20.40;;;4.37;;
64894;SDS011;51588;53.702;10.208;2023-05-29T08:14:22;18.00;;;3.90;;
64894;SDS011;51588;53.702;10.208;2023-05-29T08:16:49;14.68;;;3.80;;
64894;SDS011;51588;53.702;10.208;2023-05-29T08:19:17;11.97;;;3.73;;
64894;SDS011;51588;53.702;10.208;2023-05-29T08:21:43;9.00;;;3.10;;
64894;SDS011;51588;53.702;10.208;2023-05-29T08:24:09;11.00;;;3.87;;
64894;SDS011;51588;53.702;10.208;2023-05-29T08:26:36;8.60;;;2.87;;
64894;SDS011;51588;53.702;10.208;2023-05-29T08:29:03;6.67;;;2.97;;
64894;SDS011;51588;53.702;10.208;2023-05-29T08:31:29;11.67;;;2.83;;
64894;SDS011;51588;53.702;10.208;2023-05-29T08:33:56;7.70;;;3.20;;
64894;SDS011;51588;53.702;10.208;2023-05-29T08:36:24;13.43;;;3.40;;
64894;SDS011;51588;53.702;10.208;2023-05-29T08:38:50;10.57;;;3.40;;
64894;SDS011;51588;53.702;10.208;2023-05-29T08:41:17;15.13;;;3.90;;
64894;SDS011;51588;53.702;10.208;2023-05-29T08:43:47;10.80;;;3.27;;
64894;SDS011;51588;53.702;10.208;2023-05-29T08:46:15;10.63;;;3.23;;
64894;SDS011;51588;53.702;10.208;2023-05-29T08:48:44;12.50;;;3.60;;
64894;SDS011;51588;53.702;10.208;2023-05-29T08:51:13;10.87;;;3.70;;
64894;SDS011;51588;53.702;10.208;2023-05-29T08:53:41;15.00;;;3.67;;
64894;SDS011;51588;53.702;10.208;2023-05-29T08:56:08;13.17;;;4.43;;
64894;SDS011;51588;53.702;10.208;2023-05-29T08:58:34;11.67;;;3.53;;
64894;SDS011;51588;53.702;10.208;2023-05-29T09:01:01;12.90;;;3.60;;
64894;SDS011;51588;53.702;10.208;2023-05-29T09:03:27;15.03;;;4.47;;
64894;SDS011;51588;53.702;10.208;2023-05-29T09:05:57;16.30;;;3.53;;
64894;SDS011;51588;53.702;10.208;2023-05-29T09:08:24;15.53;;;3.40;;
64894;SDS011;51588;53.702;10.208;2023-05-29T09:10:52;10.03;;;3.43;;
64894;SDS011;51588;53.702;10.208;2023-05-29T09:13:20;14.53;;;3.40;;
64894;SDS011;51588;53.702;10.208;2023-05-29T09:15:46;11.40;;;3.13;;
64894;SDS011;51588;53.702;10.208;2023-05-29T09:18:13;10.20;;;3.00;;
64894;SDS011;51588;53.702;10.208;2023-05-29T09:20:39;20.90;;;3.80;;
64894;SDS011;51588;53.702;10.208;2023-05-29T09:23:06;14.13;;;3.20;;
64894;SDS011;51588;53.702;10.208;2023-05-29T09:25:33;11.70;;;3.00;;
64894;SDS011;51588;53.702;10.208;2023-05-29T09:28:02;12.40;;;2.87;;
64894;SDS011;51588;53.702;10.208;2023-05-29T09:30:33;12.43;;;2.80;;
64894;SDS011;51588;53.702;10.208;2023-05-29T09:33:00;13.27;;;3.87;;
64894;SDS011;51588;53.702;10.208;2023-05-29T09:35:31;12.07;;;3.20;;
64894;SDS011;51588;53.702;10.208;2023-05-29T09:37:58;9.83;;;3.13;;
64894;SDS011;51588;53.702;10.208;2023-05-29T09:40:24;13.03;;;3.63;;
64894;SDS011;51588;53.702;10.208;2023-05-29T09:42:51;8.50;;;3.17;;
64894;SDS011;51588;53.702;10.208;2023-05-29T09:45:19;12.23;;;3.30;;
64894;SDS011;51588;53.702;10.208;2023-05-29T09:47:46;8.17;;;2.77;;
64894;SDS011;51588;53.702;10.208;2023-05-29T09:50:17;7.00;;;2.60;;
64894;SDS011;51588;53.702;10.208;2023-05-29T09:52:45;9.03;;;2.70;;
64894;SDS011;51588;53.702;10.208;2023-05-29T09:55:12;10.20;;;3.27;;
64894;SDS011;51588;53.702;10.208;2023-05-29T09:57:39;12.67;;;3.50;;
64894;SDS011;51588;53.702;10.208;2023-05-29T10:00:08;13.13;;;2.87;;
64894;SDS011;51588;53.702;10.208;2023-05-29T10:02:39;5.90;;;2.20;;
64894;SDS011;51588;53.702;10.208;2023-05-29T10:05:06;8.00;;;2.80;;
64894;SDS011;51588;53.702;10.208;2023-05-29T10:07:33;7.83;;;3.20;;
64894;SDS011;51588;53.702;10.208;2023-05-29T10:10:02;7.00;;;2.60;;
64894;SDS011;51588;53.702;10.208;2023-05-29T10:12:28;6.90;;;2.87;;
64894;SDS011;51588;53.702;10.208;2023-05-29T10:14:56;5.90;;;2.30;;
64894;SDS011;51588;53.702;10.208;2023-05-29T10:17:24;7.03;;;2.73;;
64894;SDS011;51588;53.702;10.208;2023-05-29T10:19:54;7.80;;;2.43;;
64894;SDS011;51588;53.702;10.208;2023-05-29T10:22:21;6.40;;;2.63;;
64894;SDS011;51588;53.702;10.208;2023-05-29T10:24:50;7.00;;;3.07;;
64894;SDS011;51588;53.702;10.208;2023-05-29T10:27:18;5.80;;;2.40;;
64894;SDS011;51588;53.702;10.208;2023-05-29T10:29:46;5.40;;;2.37;;
64894;SDS011;51588;53.702;10.208;2023-05-29T10:32:20;7.20;;;3.03;;
64894;SDS011;51588;53.702;10.208;2023-05-29T10:34:48;5.07;;;2.53;;
64894;SDS011;51588;53.702;10.208;2023-05-29T10:37:21;7.83;;;2.60;;
64894;SDS011;51588;53.702;10.208;2023-05-29T10:39:51;7.30;;;2.23;;
64894;SDS011;51588;53.702;10.208;2023-05-29T10:45:03;4.40;;;2.43;;
64894;SDS011;51588;53.702;10.208;2023-05-29T10:47:30;6.53;;;2.43;;
64894;SDS011;51588;53.702;10.208;2023-05-29T10:49:59;7.07;;;2.40;;
64894;SDS011;51588;53.702;10.208;2023-05-29T10:52:27;5.77;;;2.43;;
64894;SDS011;51588;53.702;10.208;2023-05-29T10:54:56;6.47;;;2.33;;
64894;SDS011;51588;53.702;10.208;2023-05-29T10:57:23;5.43;;;2.50;;
64894;SDS011;51588;53.702;10.208;2023-05-29T10:59:57;4.73;;;2.27;;
64894;SDS011;51588;53.702;10.208;2023-05-29T11:02:23;5.90;;;2.47;;
64894;SDS011;51588;53.702;10.208;2023-05-29T11:05:03;5.40;;;2.53;;
64894;SDS011;51588;53.702;10.208;2023-05-29T11:07:34;6.27;;;2.23;;
64894;SDS011;51588;53.702;10.208;2023-05-29T11:10:10;5.37;;;2.33;;
64894;SDS011;51588;53.702;10.208;2023-05-29T11:12:39;5.17;;;1.97;;
64894;SDS011;51588;53.702;10.208;2023-05-29T11:15:21;4.43;;;2.23;;
64894;SDS011;51588;53.702;10.208;2023-05-29T11:17:47;5.03;;;2.10;;
64894;SDS011;51588;53.702;10.208;2023-05-29T11:20:16;6.73;;;2.33;;
64894;SDS011;51588;53.702;10.208;2023-05-29T11:22:53;6.23;;;2.20;;
64894;SDS011;51588;53.702;10.208;2023-05-29T11:25:22;5.70;;;2.20;;
64894;SDS011;51588;53.702;10.208;2023-05-29T11:27:49;6.03;;;2.50;;
64894;SDS011;51588;53.702;10.208;2023-05-29T11:30:15;7.33;;;2.37;;
64894;SDS011;51588;53.702;10.208;2023-05-29T11:32:41;5.67;;;2.20;;
64894;SDS011;51588;53.702;10.208;2023-05-29T11:35:10;4.07;;;2.13;;
64894;SDS011;51588;53.702;10.208;2023-05-29T11:37:38;5.00;;;2.37;;
64894;SDS011;51588;53.702;10.208;2023-05-29T11:40:06;4.60;;;2.43;;
64894;SDS011;51588;53.702;10.208;2023-05-29T11:42:34;5.30;;;2.00;;
64894;SDS011;51588;53.702;10.208;2023-05-29T11:45:10;6.83;;;2.00;;
64894;SDS011;51588;53.702;10.208;2023-05-29T11:47:50;3.13;;;1.80;;
64894;SDS011;51588;53.702;10.208;2023-05-29T11:50:19;5.63;;;2.07;;
64894;SDS011;51588;53.702;10.208;2023-05-29T11:52:46;3.80;;;1.97;;
64894;SDS011;51588;53.702;10.208;2023-05-29T11:55:14;5.80;;;2.30;;
64894;SDS011;51588;53.702;10.208;2023-05-29T11:57:40;5.13;;;2.30;;
64894;SDS011;51588;53.702;10.208;2023-05-29T12:00:07;3.50;;;2.20;;
64894;SDS011;51588;53.702;10.208;2023-05-29T12:02:35;5.33;;;2.40;;
64894;SDS011;51588;53.702;10.208;2023-05-29T12:05:02;6.00;;;2.17;;
64894;SDS011;51588;53.702;10.208;2023-05-29T12:07:29;4.23;;;1.43;;
64894;SDS011;51588;53.702;10.208;2023-05-29T12:09:56;4.53;;;2.20;;
64894;SDS011;51588;53.702;10.208;2023-05-29T12:12:24;8.30;;;2.30;;
64894;SDS011;51588;53.702;10.208;2023-05-29T12:14:52;4.40;;;1.97;;
64894;SDS011;51588;53.702;10.208;2023-05-29T12:17:18;3.67;;;2.20;;
64894;SDS011;51588;53.702;10.208;2023-05-29T12:19:45;5.23;;;2.37;;
64894;SDS011;51588;53.702;10.208;2023-05-29T12:22:11;5.73;;;2.40;;
64894;SDS011;51588;53.702;10.208;2023-05-29T12:24:38;3.57;;;1.97;;
64894;SDS011;51588;53.702;10.208;2023-05-29T12:27:05;5.23;;;2.10;;
64894;SDS011;51588;53.702;10.208;2023-05-29T12:29:33;4.43;;;2.43;;
64894;SDS011;51588;53.702;10.208;2023-05-29T12:32:00;5.33;;;2.50;;
64894;SDS011;51588;53.702;10.208;2023-05-29T12:34:26;4.90;;;2.33;;
64894;SDS011;51588;53.702;10.208;2023-05-29T12:36:53;4.77;;;2.17;;
64894;SDS011;51588;53.702;10.208;2023-05-29T12:39:19;6.50;;;2.70;;
64894;SDS011;51588;53.702;10.208;2023-05-29T12:41:47;6.90;;;2.60;;
64894;SDS011;51588;53.702;10.208;2023-05-29T12:44:13;11.07;;;2.50;;
64894;SDS011;51588;53.702;10.208;2023-05-29T12:46:42;4.83;;;1.93;;
64894;SDS011;51588;53.702;10.208;2023-05-29T12:49:12;5.00;;;2.50;;
64894;SDS011;51588;53.702;10.208;2023-05-29T12:51:40;6.40;;;2.60;;
64894;SDS011;51588;53.702;10.208;2023-05-29T12:54:06;5.77;;;2.30;;
64894;SDS011;51588;53.702;10.208;2023-05-29T12:56:36;11.30;;;2.57;;
64894;SDS011;51588;53.702;10.208;2023-05-29T12:59:05;7.00;;;2.50;;
64894;SDS011;51588;53.702;10.208;2023-05-29T13:01:31;7.93;;;2.87;;
64894;SDS011;51588;53.702;10.208;2023-05-29T13:03:59;13.03;;;4.77;;
64894;SDS011;51588;53.702;10.208;2023-05-29T13:06:25;12.23;;;6.03;;
64894;SDS011;51588;53.702;10.208;2023-05-29T13:08:52;8.13;;;5.70;;
64894;SDS011;51588;53.702;10.208;2023-05-29T13:11:18;9.03;;;5.60;;
64894;SDS011;51588;53.702;10.208;2023-05-29T13:13:45;12.90;;;6.67;;
64894;SDS011;51588;53.702;10.208;2023-05-29T13:16:11;10.57;;;6.27;;
64894;SDS011;51588;53.702;10.208;2023-05-29T13:18:38;10.90;;;6.37;;
64894;SDS011;51588;53.702;10.208;2023-05-29T13:21:06;12.73;;;6.13;;
64894;SDS011;51588;53.702;10.208;2023-05-29T13:23:32;11.00;;;6.40;;
64894;SDS011;51588;53.702;10.208;2023-05-29T13:25:58;13.50;;;6.00;;
64894;SDS011;51588;53.702;10.208;2023-05-29T13:28:25;11.50;;;6.13;;
64894;SDS011;51588;53.702;10.208;2023-05-29T13:30:52;9.90;;;5.30;;
64894;SDS011;51588;53.702;10.208;2023-05-29T13:33:18;7.70;;;5.03;;
64894;SDS011;51588;53.702;10.208;2023-05-29T13:35:45;10.33;;;5.23;;
64894;SDS011;51588;53.702;10.208;2023-05-29T13:38:13;10.90;;;5.40;;
64894;SDS011;51588;53.702;10.208;2023-05-29T13:40:39;14.27;;;5.07;;
64894;SDS011;51588;53.702;10.208;2023-05-29T13:43:05;9.60;;;4.50;;
64894;SDS011;51588;53.702;10.208;2023-05-29T13:45:32;10.90;;;4.70;;
64894;SDS011;51588;53.702;10.208;2023-05-29T13:47:58;8.80;;;4.17;;
64894;SDS011;51588;53.702;10.208;2023-05-29T13:50:24;6.73;;;3.90;;
64894;SDS011;51588;53.702;10.208;2023-05-29T13:52:52;7.87;;;4.20;;
64894;SDS011;51588;53.702;10.208;2023-05-29T13:55:20;9.30;;;3.77;;
64894;SDS011;51588;53.702;10.208;2023-05-29T13:57:46;7.60;;;4.07;;
64894;SDS011;51588;53.702;10.208;2023-05-29T14:00:13;5.70;;;3.17;;
64894;SDS011;51588;53.702;10.208;2023-05-29T14:02:39;7.33;;;3.50;;
64894;SDS011;51588;53.702;10.208;2023-05-29T14:05:06;13.00;;;3.70;;
64894;SDS011;51588;53.702;10.208;2023-05-29T14:07:32;7.00;;;3.13;;
64894;SDS011;51588;53.702;10.208;2023-05-29T14:09:59;10.87;;;3.13;;
64894;SDS011;51588;53.702;10.208;2023-05-29T14:12:27;9.30;;;3.40;;
64894;SDS011;51588;53.702;10.208;2023-05-29T14:14:53;13.97;;;3.50;;
64894;SDS011;51588;53.702;10.208;2023-05-29T14:17:19;6.53;;;2.70;;
64894;SDS011;51588;53.702;10.208;2023-05-29T14:19:46;6.10;;;3.00;;
64894;SDS011;51588;53.702;10.208;2023-05-29T14:22:12;7.10;;;2.73;;
64894;SDS011;51588;53.702;10.208;2023-05-29T14:24:39;5.70;;;3.00;;
64894;SDS011;51588;53.702;10.208;2023-05-29T14:27:06;6.43;;;2.90;;
64894;SDS011;51588;53.702;10.208;2023-05-29T14:29:33;8.27;;;3.23;;
64894;SDS011;51588;53.702;10.208;2023-05-29T14:32:00;6.63;;;2.70;;
64894;SDS011;51588;53.702;10.208;2023-05-29T14:34:26;6.27;;;2.57;;
64894;SDS011;51588;53.702;10.208;2023-05-29T14:36:53;9.37;;;3.50;;